sensor_id;sensor_type;location;lat;lon;timestamp;pressure;altitude;pressure_sealevel;temperature;humidity
47967;BME280;33733;52.456;13.620;2024-02-21T00:01:53;101792.75;;;8.39;71.49
47967;BME280;33733;52.456;13.620;2024-02-21T00:04:20;101788.94;;;8.46;71.35
47967;BME280;33733;52.456;13.620;2024-02-21T00:06:48;101789.03;;;8.64;70.85
47967;BME280;33733;52.456;13.620;2024-02-21T00:09:15;101784.44;;;8.48;71.41
47967;BME280;33733;52.456;13.620;2024-02-21T00:11:42;101787.47;;;8.60;70.99
47967;BME280;33733;52.456;13.620;2024-02-21T00:14:09;101781.88;;;8.67;70.90
47967;BME280;33733;52.456;13.620;2024-02-21T00:16:36;101781.16;;;8.64;70.46
47967;BME280;33733;52.456;13.620;2024-02-21T00:19:04;101775.44;;;8.54;71.10
47967;BME280;33733;52.456;13.620;2024-02-21T00:21:31;101774.34;;;8.39;71.08
47967;BME280;33733;52.456;13.620;2024-02-21T00:23:58;101774.34;;;8.39;70.68
47967;BME280;33733;52.456;13.620;2024-02-21T00:26:25;101769.50;;;8.30;71.74
47967;BME280;33733;52.456;13.620;2024-02-21T00:28:52;101770.69;;;8.22;71.22
47967;BME280;33733;52.456;13.620;2024-02-21T00:31:20;101769.44;;;8.32;71.18
47967;BME280;33733;52.456;13.620;2024-02-21T00:33:47;101763.91;;;8.38;71.47
47967;BME280;33733;52.456;13.620;2024-02-21T00:36:14;101763.13;;;8.36;71.26
47967;BME280;33733;52.456;13.620;2024-02-21T00:38:42;101761.31;;;8.36;71.11
47967;BME280;33733;52.456;13.620;2024-02-21T00:41:09;101759.50;;;8.38;71.33
47967;BME280;33733;52.456;13.620;2024-02-21T00:43:36;101756.72;;;8.41;70.97
47967;BME280;33733;52.456;13.620;2024-02-21T00:46:06;101753.09;;;8.44;70.86
47967;BME280;33733;52.456;13.620;2024-02-21T00:48:33;101749.28;;;8.51;70.98
47967;BME280;33733;52.456;13.620;2024-02-21T00:51:01;101747.59;;;8.50;71.21
47967;BME280;33733;52.456;13.620;2024-02-21T00:53:28;101742.47;;;8.47;71.46
47967;BME280;33733;52.456;13.620;2024-02-21T00:55:55;101745.78;;;8.32;71.32
47967;BME280;33733;52.456;13.620;2024-02-21T00:58:23;101747.56;;;8.31;71.47
47967;BME280;33733;52.456;13.620;2024-02-21T01:00:51;101739.13;;;8.43;71.81
47967;BME280;33733;52.456;13.620;2024-02-21T01:03:18;101740.41;;;8.54;71.24
47967;BME280;33733;52.456;13.620;2024-02-21T01:05:45;101733.56;;;8.49;71.11
47967;BME280;33733;52.456;13.620;2024-02-21T01:08:12;101744.03;;;8.51;71.22
47967;BME280;33733;52.456;13.620;2024-02-21T01:10:39;101736.25;;;8.29;71.55
47967;BME280;33733;52.456;13.620;2024-02-21T01:13:07;101732.34;;;8.38;71.64
47967;BME280;33733;52.456;13.620;2024-02-21T01:15:34;101729.78;;;8.36;71.25
47967;BME280;33733;52.456;13.620;2024-02-21T01:18:01;101737.75;;;8.35;71.71
47967;BME280;33733;52.456;13.620;2024-02-21T01:20:29;101723.91;;;8.31;71.79
47967;BME280;33733;52.456;13.620;2024-02-21T01:22:56;101719.00;;;8.42;71.23
47967;BME280;33733;52.456;13.620;2024-02-21T01:25:23;101719.88;;;8.43;70.79
47967;BME280;33733;52.456;13.620;2024-02-21T01:27:51;101725.63;;;8.51;70.73
47967;BME280;33733;52.456;13.620;2024-02-21T01:30:18;101720.22;;;8.54;70.86
47967;BME280;33733;52.456;13.620;2024-02-21T01:32:46;101723.50;;;8.59;70.62
47967;BME280;33733;52.456;13.620;2024-02-21T01:35:14;101723.00;;;8.70;69.65
47967;BME280;33733;52.456;13.620;2024-02-21T01:37:41;101719.13;;;8.60;70.43
47967;BME280;33733;52.456;13.620;2024-02-21T01:40:09;101707.22;;;8.51;70.59
47967;BME280;33733;52.456;13.620;2024-02-21T01:42:40;101708.28;;;8.47;70.64
47967;BME280;33733;52.456;13.620;2024-02-21T01:45:10;101707.13;;;8.34;70.79
47967;BME280;33733;52.456;13.620;2024-02-21T01:47:37;101702.72;;;8.34;70.73
47967;BME280;33733;52.456;13.620;2024-02-21T01:50:05;101704.09;;;8.43;70.13
47967;BME280;33733;52.456;13.620;2024-02-21T01:52:33;101700.41;;;8.27;70.60
47967;BME280;33733;52.456;13.620;2024-02-21T01:55:02;101706.94;;;8.38;70.82
47967;BME280;33733;52.456;13.620;2024-02-21T01:57:29;101703.53;;;8.55;70.24
47967;BME280;33733;52.456;13.620;2024-02-21T01:59:57;101697.97;;;8.42;70.66
47967;BME280;33733;52.456;13.620;2024-02-21T02:02:24;101693.59;;;8.62;69.93
47967;BME280;33733;52.456;13.620;2024-02-21T02:04:51;101698.09;;;8.60;69.60
47967;BME280;33733;52.456;13.620;2024-02-21T02:07:19;101691.09;;;8.59;69.68
47967;BME280;33733;52.456;13.620;2024-02-21T02:09:46;101694.44;;;8.62;69.37
47967;BME280;33733;52.456;13.620;2024-02-21T02:12:14;101679.94;;;8.54;69.18
47967;BME280;33733;52.456;13.620;2024-02-21T02:14:41;101677.09;;;8.58;69.52
47967;BME280;33733;52.456;13.620;2024-02-21T02:17:08;101674.63;;;8.74;69.43
47967;BME280;33733;52.456;13.620;2024-02-21T02:19:36;101677.25;;;8.74;69.25
47967;BME280;33733;52.456;13.620;2024-02-21T02:22:10;101670.56;;;8.85;68.97
47967;BME280;33733;52.456;13.620;2024-02-21T02:24:41;101666.03;;;8.70;68.68
47967;BME280;33733;52.456;13.620;2024-02-21T02:27:08;101658.06;;;8.72;68.95
47967;BME280;33733;52.456;13.620;2024-02-21T02:29:35;101662.31;;;8.74;68.94
47967;BME280;33733;52.456;13.620;2024-02-21T02:32:03;101663.38;;;8.70;69.01
47967;BME280;33733;52.456;13.620;2024-02-21T02:34:30;101658.19;;;8.69;69.48
47967;BME280;33733;52.456;13.620;2024-02-21T02:36:57;101654.50;;;8.73;69.94
47967;BME280;33733;52.456;13.620;2024-02-21T02:39:25;101647.19;;;8.79;70.32
47967;BME280;33733;52.456;13.620;2024-02-21T02:41:52;101647.41;;;8.75;70.38
47967;BME280;33733;52.456;13.620;2024-02-21T02:44:19;101651.66;;;8.77;70.61
47967;BME280;33733;52.456;13.620;2024-02-21T02:46:46;101648.53;;;8.69;72.03
47967;BME280;33733;52.456;13.620;2024-02-21T02:49:13;101646.06;;;8.47;72.51
47967;BME280;33733;52.456;13.620;2024-02-21T02:51:42;101650.13;;;8.36;72.81
47967;BME280;33733;52.456;13.620;2024-02-21T02:54:11;101656.84;;;8.41;73.11
47967;BME280;33733;52.456;13.620;2024-02-21T02:56:38;101650.38;;;8.48;73.64
47967;BME280;33733;52.456;13.620;2024-02-21T02:59:05;101650.53;;;8.45;73.94
47967;BME280;33733;52.456;13.620;2024-02-21T03:01:35;101648.41;;;8.35;74.85
47967;BME280;33733;52.456;13.620;2024-02-21T03:04:03;101638.88;;;8.51;74.77
47967;BME280;33733;52.456;13.620;2024-02-21T03:06:30;101636.38;;;8.29;74.90
47967;BME280;33733;52.456;13.620;2024-02-21T03:08:57;101629.28;;;8.31;74.92
47967;BME280;33733;52.456;13.620;2024-02-21T03:11:24;101627.81;;;8.24;75.19
47967;BME280;33733;52.456;13.620;2024-02-21T03:13:56;101621.84;;;8.21;76.23
47967;BME280;33733;52.456;13.620;2024-02-21T03:16:24;101622.56;;;8.24;76.10
47967;BME280;33733;52.456;13.620;2024-02-21T03:18:51;101624.22;;;8.27;76.51
47967;BME280;33733;52.456;13.620;2024-02-21T03:21:19;101627.09;;;8.21;76.59
47967;BME280;33733;52.456;13.620;2024-02-21T03:23:46;101613.88;;;8.42;75.93
47967;BME280;33733;52.456;13.620;2024-02-21T03:26:13;101613.03;;;8.22;75.67
47967;BME280;33733;52.456;13.620;2024-02-21T03:28:44;101608.78;;;8.19;76.05
47967;BME280;33733;52.456;13.620;2024-02-21T03:31:14;101612.28;;;8.20;76.32
47967;BME280;33733;52.456;13.620;2024-02-21T03:33:42;101606.44;;;8.13;76.47
47967;BME280;33733;52.456;13.620;2024-02-21T03:36:14;101595.78;;;8.16;76.99
47967;BME280;33733;52.456;13.620;2024-02-21T03:38:42;101603.94;;;8.30;76.87
47967;BME280;33733;52.456;13.620;2024-02-21T03:41:09;101609.56;;;8.21;76.37
47967;BME280;33733;52.456;13.620;2024-02-21T03:43:39;101610.06;;;8.11;77.02
47967;BME280;33733;52.456;13.620;2024-02-21T03:46:07;101608.50;;;8.07;77.23
47967;BME280;33733;52.456;13.620;2024-02-21T03:48:34;101609.34;;;8.07;78.07
47967;BME280;33733;52.456;13.620;2024-02-21T03:51:01;101605.41;;;7.97;78.72
47967;BME280;33733;52.456;13.620;2024-02-21T03:53:28;101613.22;;;7.98;78.81
47967;BME280;33733;52.456;13.620;2024-02-21T03:55:55;101603.94;;;7.91;78.93
47967;BME280;33733;52.456;13.620;2024-02-21T03:58:23;101599.53;;;7.92;78.86
47967;BME280;33733;52.456;13.620;2024-02-21T04:00:50;101587.41;;;8.08;78.49
47967;BME280;33733;52.456;13.620;2024-02-21T04:03:19;101586.84;;;7.81;79.20
47967;BME280;33733;52.456;13.620;2024-02-21T04:05:46;101580.50;;;7.87;79.92
47967;BME280;33733;52.456;13.620;2024-02-21T04:08:14;101572.75;;;7.84;79.83
47967;BME280;33733;52.456;13.620;2024-02-21T04:10:41;101575.63;;;7.59;80.59
47967;BME280;33733;52.456;13.620;2024-02-21T04:13:09;101573.69;;;7.63;81.32
47967;BME280;33733;52.456;13.620;2024-02-21T04:15:36;101573.31;;;7.72;81.33
47967;BME280;33733;52.456;13.620;2024-02-21T04:18:04;101573.09;;;7.76;80.56
47967;BME280;33733;52.456;13.620;2024-02-21T04:20:31;101567.78;;;7.78;80.38
47967;BME280;33733;52.456;13.620;2024-02-21T04:22:59;101559.25;;;7.52;81.25
47967;BME280;33733;52.456;13.620;2024-02-21T04:25:26;101560.44;;;7.66;80.99
47967;BME280;33733;52.456;13.620;2024-02-21T04:27:53;101551.28;;;7.55;81.32
47967;BME280;33733;52.456;13.620;2024-02-21T04:30:20;101534.28;;;7.44;81.44
47967;BME280;33733;52.456;13.620;2024-02-21T04:32:48;101538.88;;;7.39;81.65
47967;BME280;33733;52.456;13.620;2024-02-21T04:35:16;101528.91;;;7.27;82.61
47967;BME280;33733;52.456;13.620;2024-02-21T04:37:43;101519.84;;;7.34;82.65
47967;BME280;33733;52.456;13.620;2024-02-21T04:40:12;101523.91;;;7.41;81.87
47967;BME280;33733;52.456;13.620;2024-02-21T04:42:40;101514.25;;;7.41;82.45
47967;BME280;33733;52.456;13.620;2024-02-21T04:45:07;101521.38;;;7.39;82.23
47967;BME280;33733;52.456;13.620;2024-02-21T04:47:34;101510.44;;;7.48;82.19
47967;BME280;33733;52.456;13.620;2024-02-21T04:50:02;101504.28;;;7.49;82.21
47967;BME280;33733;52.456;13.620;2024-02-21T04:52:29;101496.91;;;7.57;81.06
47967;BME280;33733;52.456;13.620;2024-02-21T04:54:57;101497.66;;;7.41;81.48
47967;BME280;33733;52.456;13.620;2024-02-21T04:57:24;101488.38;;;7.34;82.10
47967;BME280;33733;52.456;13.620;2024-02-21T04:59:52;101492.00;;;7.31;82.54
47967;BME280;33733;52.456;13.620;2024-02-21T05:02:19;101491.66;;;7.39;82.18
47967;BME280;33733;52.456;13.620;2024-02-21T05:04:50;101484.25;;;7.28;82.15
47967;BME280;33733;52.456;13.620;2024-02-21T05:07:18;101482.31;;;7.52;82.07
47967;BME280;33733;52.456;13.620;2024-02-21T05:09:46;101480.41;;;7.55;81.35
47967;BME280;33733;52.456;13.620;2024-02-21T05:12:13;101481.41;;;7.33;82.36
47967;BME280;33733;52.456;13.620;2024-02-21T05:14:41;101484.84;;;7.35;81.57
47967;BME280;33733;52.456;13.620;2024-02-21T05:17:08;101476.75;;;7.39;82.04
47967;BME280;33733;52.456;13.620;2024-02-21T05:19:35;101474.91;;;7.41;82.27
47967;BME280;33733;52.456;13.620;2024-02-21T05:22:03;101484.28;;;7.47;81.94
47967;BME280;33733;52.456;13.620;2024-02-21T05:24:30;101475.88;;;7.59;81.21
47967;BME280;33733;52.456;13.620;2024-02-21T05:26:57;101476.13;;;7.53;80.68
47967;BME280;33733;52.456;13.620;2024-02-21T05:29:24;101480.31;;;7.57;81.29
47967;BME280;33733;52.456;13.620;2024-02-21T05:34:20;101476.94;;;7.55;80.50
47967;BME280;33733;52.456;13.620;2024-02-21T05:36:48;101471.53;;;7.58;81.26
47967;BME280;33733;52.456;13.620;2024-02-21T05:39:17;101482.09;;;7.56;81.15
47967;BME280;33733;52.456;13.620;2024-02-21T05:41:45;101472.69;;;7.71;80.33
47967;BME280;33733;52.456;13.620;2024-02-21T05:44:12;101474.72;;;7.65;80.73
47967;BME280;33733;52.456;13.620;2024-02-21T05:46:39;101465.50;;;7.75;80.36
47967;BME280;33733;52.456;13.620;2024-02-21T05:49:07;101474.09;;;7.60;80.40
47967;BME280;33733;52.456;13.620;2024-02-21T05:51:34;101473.94;;;7.63;80.34
47967;BME280;33733;52.456;13.620;2024-02-21T05:54:02;101472.88;;;7.67;80.64
47967;BME280;33733;52.456;13.620;2024-02-21T05:56:29;101473.09;;;7.62;80.65
47967;BME280;33733;52.456;13.620;2024-02-21T05:58:57;101479.16;;;7.64;80.57
47967;BME280;33733;52.456;13.620;2024-02-21T06:01:25;101477.78;;;7.55;80.56
47967;BME280;33733;52.456;13.620;2024-02-21T06:03:52;101473.59;;;7.70;80.56
47967;BME280;33733;52.456;13.620;2024-02-21T06:06:21;101473.38;;;7.56;80.99
47967;BME280;33733;52.456;13.620;2024-02-21T06:08:49;101472.53;;;7.55;80.81
47967;BME280;33733;52.456;13.620;2024-02-21T06:11:16;101466.34;;;7.56;80.79
47967;BME280;33733;52.456;13.620;2024-02-21T06:13:44;101450.53;;;7.58;80.97
47967;BME280;33733;52.456;13.620;2024-02-21T06:16:11;101453.16;;;7.39;80.99
47967;BME280;33733;52.456;13.620;2024-02-21T06:18:38;101449.47;;;7.43;81.01
47967;BME280;33733;52.456;13.620;2024-02-21T06:21:06;101447.97;;;7.56;81.15
47967;BME280;33733;52.456;13.620;2024-02-21T06:23:33;101463.44;;;7.63;81.19
47967;BME280;33733;52.456;13.620;2024-02-21T06:26:00;101449.06;;;7.71;80.34
47967;BME280;33733;52.456;13.620;2024-02-21T06:28:28;101457.69;;;7.54;81.19
47967;BME280;33733;52.456;13.620;2024-02-21T06:30:55;101449.03;;;7.52;81.10
47967;BME280;33733;52.456;13.620;2024-02-21T06:33:22;101449.16;;;7.49;80.81
47967;BME280;33733;52.456;13.620;2024-02-21T06:35:52;101443.16;;;7.47;80.39
47967;BME280;33733;52.456;13.620;2024-02-21T06:38:20;101441.09;;;7.54;80.86
47967;BME280;33733;52.456;13.620;2024-02-21T06:40:47;101446.28;;;7.55;80.69
47967;BME280;33733;52.456;13.620;2024-02-21T06:43:20;101444.00;;;7.67;80.39
47967;BME280;33733;52.456;13.620;2024-02-21T06:45:47;101453.66;;;7.66;80.47
47967;BME280;33733;52.456;13.620;2024-02-21T06:48:18;101460.91;;;7.80;80.13
47967;BME280;33733;52.456;13.620;2024-02-21T06:50:46;101459.75;;;7.67;80.19
47967;BME280;33733;52.456;13.620;2024-02-21T06:53:14;101459.75;;;7.67;80.83
47967;BME280;33733;52.456;13.620;2024-02-21T06:55:41;101451.75;;;7.70;79.99
47967;BME280;33733;52.456;13.620;2024-02-21T06:58:08;101459.91;;;7.64;80.29
47967;BME280;33733;52.456;13.620;2024-02-21T07:00:42;101459.34;;;7.76;80.24
47967;BME280;33733;52.456;13.620;2024-02-21T07:03:09;101457.78;;;7.72;80.38
47967;BME280;33733;52.456;13.620;2024-02-21T07:05:36;101458.13;;;7.83;79.49
47967;BME280;33733;52.456;13.620;2024-02-21T07:08:04;101458.69;;;7.71;79.52
47967;BME280;33733;52.456;13.620;2024-02-21T07:10:31;101462.47;;;7.84;79.94
47967;BME280;33733;52.456;13.620;2024-02-21T07:12:58;101461.75;;;7.99;79.43
47967;BME280;33733;52.456;13.620;2024-02-21T07:15:25;101464.16;;;7.85;79.25
47967;BME280;33733;52.456;13.620;2024-02-21T07:17:54;101463.03;;;7.72;79.35
47967;BME280;33733;52.456;13.620;2024-02-21T07:20:21;101464.09;;;7.68;79.74
47967;BME280;33733;52.456;13.620;2024-02-21T07:22:48;101467.63;;;7.85;79.49
47967;BME280;33733;52.456;13.620;2024-02-21T07:25:16;101461.09;;;7.94;78.96
47967;BME280;33733;52.456;13.620;2024-02-21T07:27:44;101467.66;;;8.04;78.36
47967;BME280;33733;52.456;13.620;2024-02-21T07:30:11;101468.44;;;7.87;78.40
47967;BME280;33733;52.456;13.620;2024-02-21T07:32:43;101472.25;;;7.99;78.42
47967;BME280;33733;52.456;13.620;2024-02-21T07:35:10;101457.41;;;7.98;78.85
47967;BME280;33733;52.456;13.620;2024-02-21T07:37:39;101459.84;;;7.84;79.03
47967;BME280;33733;52.456;13.620;2024-02-21T07:40:11;101467.72;;;7.84;78.80
47967;BME280;33733;52.456;13.620;2024-02-21T07:42:38;101456.72;;;7.94;79.15
47967;BME280;33733;52.456;13.620;2024-02-21T07:45:07;101458.47;;;7.94;77.89
47967;BME280;33733;52.456;13.620;2024-02-21T07:47:35;101455.22;;;8.08;78.08
47967;BME280;33733;52.456;13.620;2024-02-21T07:50:05;101454.41;;;8.06;78.26
47967;BME280;33733;52.456;13.620;2024-02-21T07:52:33;101454.63;;;8.01;77.65
47967;BME280;33733;52.456;13.620;2024-02-21T07:55:00;101450.44;;;8.16;77.70
47967;BME280;33733;52.456;13.620;2024-02-21T07:57:27;101442.00;;;8.09;77.40
47967;BME280;33733;52.456;13.620;2024-02-21T07:59:54;101449.75;;;7.93;77.53
47967;BME280;33733;52.456;13.620;2024-02-21T08:02:21;101443.22;;;8.02;77.41
47967;BME280;33733;52.456;13.620;2024-02-21T08:04:49;101445.84;;;8.02;77.89
47967;BME280;33733;52.456;13.620;2024-02-21T08:07:16;101446.88;;;8.17;77.31
47967;BME280;33733;52.456;13.620;2024-02-21T08:09:43;101441.78;;;8.14;77.12
47967;BME280;33733;52.456;13.620;2024-02-21T08:12:10;101423.53;;;8.11;77.44
47967;BME280;33733;52.456;13.620;2024-02-21T08:14:37;101430.50;;;8.12;76.96
47967;BME280;33733;52.456;13.620;2024-02-21T08:17:04;101417.38;;;8.12;76.74
47967;BME280;33733;52.456;13.620;2024-02-21T08:19:32;101431.31;;;8.12;76.55
47967;BME280;33733;52.456;13.620;2024-02-21T08:21:59;101428.00;;;8.09;76.71
47967;BME280;33733;52.456;13.620;2024-02-21T08:24:26;101430.72;;;8.07;76.82
47967;BME280;33733;52.456;13.620;2024-02-21T08:26:54;101427.34;;;8.22;76.58
47967;BME280;33733;52.456;13.620;2024-02-21T08:29:21;101431.91;;;8.19;76.19
47967;BME280;33733;52.456;13.620;2024-02-21T08:31:48;101424.94;;;8.18;75.92
47967;BME280;33733;52.456;13.620;2024-02-21T08:34:15;101420.66;;;8.34;75.58
47967;BME280;33733;52.456;13.620;2024-02-21T08:36:43;101425.22;;;8.30;75.43
47967;BME280;33733;52.456;13.620;2024-02-21T08:39:10;101423.78;;;8.42;75.45
47967;BME280;33733;52.456;13.620;2024-02-21T08:41:38;101423.22;;;8.53;74.92
47967;BME280;33733;52.456;13.620;2024-02-21T08:44:23;101419.53;;;8.39;74.73
47967;BME280;33733;52.456;13.620;2024-02-21T08:46:53;101421.22;;;8.58;74.13
47967;BME280;33733;52.456;13.620;2024-02-21T08:49:20;101418.31;;;8.64;73.76
47967;BME280;33733;52.456;13.620;2024-02-21T08:51:47;101425.16;;;8.49;74.07
47967;BME280;33733;52.456;13.620;2024-02-21T08:54:15;101422.03;;;8.60;74.34
47967;BME280;33733;52.456;13.620;2024-02-21T08:56:42;101410.88;;;8.72;73.93
47967;BME280;33733;52.456;13.620;2024-02-21T08:59:10;101415.97;;;8.75;73.95
47967;BME280;33733;52.456;13.620;2024-02-21T09:01:37;101412.00;;;9.01;73.20
47967;BME280;33733;52.456;13.620;2024-02-21T09:04:05;101416.09;;;8.89;73.29
47967;BME280;33733;52.456;13.620;2024-02-21T09:06:32;101414.91;;;8.79;73.13
47967;BME280;33733;52.456;13.620;2024-02-21T09:09:00;101422.00;;;8.94;73.34
47967;BME280;33733;52.456;13.620;2024-02-21T09:11:28;101430.09;;;9.07;72.88
47967;BME280;33733;52.456;13.620;2024-02-21T09:13:55;101419.47;;;9.08;72.85
47967;BME280;33733;52.456;13.620;2024-02-21T09:16:23;101415.06;;;9.09;72.58
47967;BME280;33733;52.456;13.620;2024-02-21T09:18:51;101422.50;;;9.01;72.67
47967;BME280;33733;52.456;13.620;2024-02-21T09:21:19;101414.38;;;9.05;72.90
47967;BME280;33733;52.456;13.620;2024-02-21T09:23:46;101417.97;;;9.20;72.62
47967;BME280;33733;52.456;13.620;2024-02-21T09:26:14;101419.44;;;9.25;71.80
47967;BME280;33733;52.456;13.620;2024-02-21T09:28:43;101419.44;;;9.25;72.36
47967;BME280;33733;52.456;13.620;2024-02-21T09:31:12;101410.94;;;9.20;71.79
47967;BME280;33733;52.456;13.620;2024-02-21T09:33:39;101417.34;;;9.32;72.18
47967;BME280;33733;52.456;13.620;2024-02-21T09:36:07;101408.34;;;9.36;71.84
47967;BME280;33733;52.456;13.620;2024-02-21T09:38:34;101402.75;;;9.42;71.45
47967;BME280;33733;52.456;13.620;2024-02-21T09:41:17;101401.75;;;9.60;71.70
47967;BME280;33733;52.456;13.620;2024-02-21T09:43:50;101398.69;;;9.83;70.73
47967;BME280;33733;52.456;13.620;2024-02-21T09:46:24;101397.88;;;9.83;70.39
47967;BME280;33733;52.456;13.620;2024-02-21T09:51:19;101389.88;;;9.84;70.62
47967;BME280;33733;52.456;13.620;2024-02-21T09:53:48;101388.16;;;9.83;70.71
47967;BME280;33733;52.456;13.620;2024-02-21T09:56:28;101386.56;;;9.65;70.86
47967;BME280;33733;52.456;13.620;2024-02-21T09:58:57;101388.25;;;9.82;70.81
47967;BME280;33733;52.456;13.620;2024-02-21T10:01:24;101389.44;;;9.92;69.90
47967;BME280;33733;52.456;13.620;2024-02-21T10:04:01;101401.16;;;10.02;69.60
47967;BME280;33733;52.456;13.620;2024-02-21T10:06:30;101397.75;;;10.00;69.68
47967;BME280;33733;52.456;13.620;2024-02-21T10:08:57;101393.53;;;9.66;70.00
47967;BME280;33733;52.456;13.620;2024-02-21T10:11:25;101399.78;;;9.79;70.36
47967;BME280;33733;52.456;13.620;2024-02-21T10:14:03;101396.16;;;9.66;70.36
47967;BME280;33733;52.456;13.620;2024-02-21T10:16:32;101389.59;;;9.89;70.10
47967;BME280;33733;52.456;13.620;2024-02-21T10:19:00;101390.53;;;9.88;70.46
47967;BME280;33733;52.456;13.620;2024-02-21T10:21:28;101382.38;;;9.77;69.96
47967;BME280;33733;52.456;13.620;2024-02-21T10:23:56;101383.75;;;9.84;70.42
47967;BME280;33733;52.456;13.620;2024-02-21T10:26:23;101389.25;;;10.26;70.09
47967;BME280;33733;52.456;13.620;2024-02-21T10:28:50;101385.28;;;10.63;68.53
47967;BME280;33733;52.456;13.620;2024-02-21T10:31:25;101384.94;;;10.69;67.44
47967;BME280;33733;52.456;13.620;2024-02-21T10:34:00;101383.31;;;10.53;68.49
47967;BME280;33733;52.456;13.620;2024-02-21T10:36:31;101390.53;;;10.35;68.02
47967;BME280;33733;52.456;13.620;2024-02-21T10:38:58;101382.03;;;10.14;68.45
47967;BME280;33733;52.456;13.620;2024-02-21T10:41:25;101382.94;;;10.29;68.54
47967;BME280;33733;52.456;13.620;2024-02-21T10:43:54;101399.09;;;10.39;67.74
47967;BME280;33733;52.456;13.620;2024-02-21T10:46:24;101397.06;;;10.28;68.47
47967;BME280;33733;52.456;13.620;2024-02-21T10:49:17;101390.38;;;10.52;67.88
47967;BME280;33733;52.456;13.620;2024-02-21T10:51:47;101382.19;;;10.57;67.06
47967;BME280;33733;52.456;13.620;2024-02-21T10:56:49;101371.56;;;10.28;67.45
47967;BME280;33733;52.456;13.620;2024-02-21T10:59:18;101364.91;;;10.37;67.79
47967;BME280;33733;52.456;13.620;2024-02-21T11:01:45;101368.41;;;10.52;67.98
47967;BME280;33733;52.456;13.620;2024-02-21T11:04:12;101357.72;;;10.69;67.36
47967;BME280;33733;52.456;13.620;2024-02-21T11:06:41;101363.06;;;10.53;67.14
47967;BME280;33733;52.456;13.620;2024-02-21T11:09:10;101364.03;;;10.36;67.50
47967;BME280;33733;52.456;13.620;2024-02-21T11:11:40;101362.72;;;10.29;68.01
47967;BME280;33733;52.456;13.620;2024-02-21T11:14:09;101352.88;;;10.17;69.34
47967;BME280;33733;52.456;13.620;2024-02-21T11:19:20;101345.03;;;10.16;68.67
47967;BME280;33733;52.456;13.620;2024-02-21T11:21:48;101346.00;;;10.45;68.41
47967;BME280;33733;52.456;13.620;2024-02-21T11:24:32;101335.28;;;10.76;67.88
47967;BME280;33733;52.456;13.620;2024-02-21T11:27:23;101341.91;;;10.97;67.66
47967;BME280;33733;52.456;13.620;2024-02-21T11:29:57;101319.66;;;11.01;67.04
47967;BME280;33733;52.456;13.620;2024-02-21T11:32:26;101326.28;;;10.94;67.69
47967;BME280;33733;52.456;13.620;2024-02-21T11:34:58;101317.22;;;11.12;66.48
47967;BME280;33733;52.456;13.620;2024-02-21T11:37:34;101318.53;;;10.91;67.18
47967;BME280;33733;52.456;13.620;2024-02-21T11:40:04;101306.66;;;11.26;66.61
47967;BME280;33733;52.456;13.620;2024-02-21T11:42:35;101303.63;;;11.59;66.70
47967;BME280;33733;52.456;13.620;2024-02-21T11:45:02;101290.25;;;11.89;64.40
47967;BME280;33733;52.456;13.620;2024-02-21T11:47:29;101291.44;;;11.98;63.88
47967;BME280;33733;52.456;13.620;2024-02-21T11:49:57;101288.13;;;11.67;64.37
47967;BME280;33733;52.456;13.620;2024-02-21T11:52:25;101286.69;;;11.49;63.98
47967;BME280;33733;52.456;13.620;2024-02-21T11:54:54;101271.19;;;11.57;64.05
47967;BME280;33733;52.456;13.620;2024-02-21T11:57:23;101262.47;;;11.96;63.55
47967;BME280;33733;52.456;13.620;2024-02-21T11:59:51;101259.91;;;11.95;63.24
47967;BME280;33733;52.456;13.620;2024-02-21T12:02:26;101265.41;;;11.65;63.53
47967;BME280;33733;52.456;13.620;2024-02-21T12:04:53;101253.53;;;11.58;63.67
47967;BME280;33733;52.456;13.620;2024-02-21T12:07:21;101257.69;;;11.89;63.33
47967;BME280;33733;52.456;13.620;2024-02-21T12:09:51;101257.97;;;12.36;61.77
47967;BME280;33733;52.456;13.620;2024-02-21T12:12:20;101252.63;;;11.98;62.17
47967;BME280;33733;52.456;13.620;2024-02-21T12:14:54;101240.19;;;12.63;60.72
47967;BME280;33733;52.456;13.620;2024-02-21T12:17:22;101245.19;;;13.04;59.05
47967;BME280;33733;52.456;13.620;2024-02-21T12:19:50;101239.41;;;12.74;58.86
47967;BME280;33733;52.456;13.620;2024-02-21T12:22:18;101232.63;;;12.83;58.81
47967;BME280;33733;52.456;13.620;2024-02-21T12:24:46;101215.75;;;13.80;56.45
47967;BME280;33733;52.456;13.620;2024-02-21T12:27:15;101215.63;;;14.17;55.50
47967;BME280;33733;52.456;13.620;2024-02-21T12:29:42;101212.66;;;14.66;53.48
47967;BME280;33733;52.456;13.620;2024-02-21T12:32:09;101215.75;;;13.80;55.54
47967;BME280;33733;52.456;13.620;2024-02-21T12:34:37;101202.06;;;14.54;54.71
47967;BME280;33733;52.456;13.620;2024-02-21T12:37:22;101190.56;;;14.21;53.66
47967;BME280;33733;52.456;13.620;2024-02-21T12:39:49;101198.72;;;14.06;54.83
47967;BME280;33733;52.456;13.620;2024-02-21T12:42:16;101203.56;;;13.78;55.50
47967;BME280;33733;52.456;13.620;2024-02-21T12:44:44;101192.22;;;13.64;55.79
47967;BME280;33733;52.456;13.620;2024-02-21T12:47:11;101192.81;;;13.68;55.96
47967;BME280;33733;52.456;13.620;2024-02-21T12:49:39;101182.53;;;13.98;55.60
47967;BME280;33733;52.456;13.620;2024-02-21T12:52:12;101188.13;;;13.37;56.20
47967;BME280;33733;52.456;13.620;2024-02-21T12:54:40;101188.63;;;12.69;58.88
47967;BME280;33733;52.456;13.620;2024-02-21T12:57:07;101180.66;;;12.82;58.67
47967;BME280;33733;52.456;13.620;2024-02-21T12:59:34;101189.50;;;12.57;59.32
47967;BME280;33733;52.456;13.620;2024-02-21T13:02:01;101175.56;;;12.04;60.84
47967;BME280;33733;52.456;13.620;2024-02-21T13:04:29;101180.31;;;12.24;60.60